Time;durP1;ratioP1;P1;durP2;ratioP2;P2;SDS_P1;SDS_P2;PMS_P1;PMS_P2;Temp;Humidity;BMP_temperature;BMP_pressure;BME280_temperature;BME280_humidity;BME280_pressure;Samples;Min_cycle;Max_cycle;Signal;HPM_P1;HPM_P2
2021/04/11 00:01:44;;;;;;;42.43;28.67;;;;;;;4.80;100.00;102402.44;4978162;28;20262;-78
2021/04/11 00:04:10;;;;;;;40.37;27.90;;;;;;;4.79;100.00;102408.53;4984823;28;20677;-78
2021/04/11 00:06:36;;;;;;;37.77;27.53;;;;;;;4.79;100.00;102413.75;4991413;28;20167;-75
2021/04/11 00:09:02;;;;;;;39.70;29.37;;;;;;;4.67;100.00;102404.38;4992884;28;20199;-68
2021/04/11 00:11:28;;;;;;;47.90;28.77;;;;;;;4.69;100.00;102406.97;4987865;28;20654;-75
2021/04/11 00:13:55;;;;;;;44.83;28.90;;;;;;;4.68;100.00;102408.69;4973427;28;20391;-77
2021/04/11 00:16:21;;;;;;;45.37;28.47;;;;;;;4.77;100.00;102404.25;4983602;28;20938;-72
2021/04/11 00:18:47;;;;;;;39.23;27.77;;;;;;;4.67;100.00;102411.31;4973753;28;20503;-76
2021/04/11 00:21:13;;;;;;;41.93;28.40;;;;;;;4.55;100.00;102408.94;4972950;28;20498;-76
2021/04/11 00:23:39;;;;;;;40.00;26.93;;;;;;;4.51;100.00;102415.91;4985649;28;20186;-69
2021/04/11 00:26:05;;;;;;;37.80;25.20;;;;;;;4.64;100.00;102409.63;4992862;28;20422;-77
2021/04/11 00:28:31;;;;;;;34.70;26.37;;;;;;;4.52;100.00;102412.41;4986586;28;20545;-76
2021/04/11 00:30:57;;;;;;;35.23;24.47;;;;;;;4.49;100.00;102407.25;4973035;28;20498;-74
2021/04/11 00:33:45;;;;;;;32.87;23.27;;;;;;;4.42;100.00;102408.22;4974453;28;20168;-77
2021/04/11 00:36:13;;;;;;;31.77;23.07;;;;;;;4.24;100.00;102400.69;4973706;28;20168;-75
2021/04/11 00:38:40;;;;;;;35.30;22.60;;;;;;;4.37;100.00;102403.09;4973394;28;20474;-79
2021/04/11 00:41:30;;;;;;;39.57;23.30;;;;;;;4.36;100.00;102397.91;4972857;28;20399;-73
2021/04/11 00:43:57;;;;;;;40.60;23.30;;;;;;;4.33;100.00;102400.56;4973668;28;20427;-70
2021/04/11 00:46:42;;;;;;;26.23;21.93;;;;;;;4.26;100.00;102397.19;4987410;28;20410;-71
2021/04/11 00:49:18;;;;;;;33.03;19.30;;;;;;;4.35;100.00;102409.19;4973237;28;20546;-77
2021/04/11 00:51:43;;;;;;;27.80;20.53;;;;;;;4.37;100.00;102407.44;4981740;28;20402;-70
2021/04/11 00:54:09;;;;;;;30.90;21.47;;;;;;;4.27;100.00;102411.06;4989704;28;20517;-75
2021/04/11 00:56:38;;;;;;;29.00;21.70;;;;;;;4.23;100.00;102402.41;4986360;28;20182;-70
2021/04/11 00:59:05;;;;;;;28.80;19.23;;;;;;;4.11;100.00;102403.44;4992271;28;20155;-74
2021/04/11 01:01:31;;;;;;;33.67;21.47;;;;;;;4.03;100.00;102407.88;4986617;28;20785;-71
2021/04/11 01:03:56;;;;;;;38.60;24.20;;;;;;;4.03;100.00;102410.50;4972059;28;20961;-73
2021/04/11 01:06:28;;;;;;;31.20;20.50;;;;;;;4.04;100.00;102408.75;4973253;28;20175;-70
2021/04/11 01:08:54;;;;;;;26.50;16.30;;;;;;;4.04;100.00;102411.34;4981699;28;21002;-73
2021/04/11 01:11:38;;;;;;;20.50;13.30;;;;;;;4.01;100.00;102403.59;4971533;28;20403;-71
2021/04/11 01:14:08;;;;;;;29.93;14.90;;;;;;;3.95;100.00;102406.28;4972047;28;20429;-72
2021/04/11 01:16:35;;;;;;;45.20;20.27;;;;;;;3.92;100.00;102408.88;4972949;28;20438;-70
2021/04/11 01:19:00;;;;;;;27.70;16.10;;;;;;;3.90;100.00;102409.78;4972257;28;20451;-71
2021/04/11 01:21:41;;;;;;;31.63;19.40;;;;;;;3.87;100.00;102398.56;4972556;28;20419;-72
2021/04/11 01:24:30;;;;;;;25.03;15.93;;;;;;;3.86;100.00;102402.03;4972954;28;20599;-70
2021/04/11 01:26:56;;;;;;;30.63;18.70;;;;;;;3.85;100.00;102398.59;4972559;28;20434;-71
2021/04/11 01:29:23;;;;;;;31.17;16.87;;;;;;;3.83;100.00;102397.72;4988985;28;20454;-73
2021/04/11 01:31:49;;;;;;;28.30;18.47;;;;;;;3.81;100.00;102399.50;4991815;28;20186;-69
2021/04/11 01:34:15;;;;;;;28.20;20.60;;;;;;;3.76;100.00;102397.81;4975114;28;20491;-72
2021/04/11 01:36:44;;;;;;;31.33;20.57;;;;;;;3.69;100.00;102398.75;4972728;28;20494;-70
2021/04/11 01:39:18;;;;;;;32.37;20.37;;;;;;;3.68;100.00;102397.03;4972204;28;20640;-72
2021/04/11 01:41:45;;;;;;;30.67;19.63;;;;;;;3.72;100.00;102394.41;4982157;28;20795;-73
2021/04/11 01:44:14;;;;;;;34.17;19.37;;;;;;;3.67;100.00;102401.38;4991533;28;20484;-73
2021/04/11 01:46:40;;;;;;;28.60;19.90;;;;;;;3.57;100.00;102404.97;4972464;28;20418;-69
2021/04/11 01:49:06;;;;;;;24.17;16.87;;;;;;;3.69;100.00;102406.56;4972224;28;20443;-70
2021/04/11 01:51:37;;;;;;;24.20;15.87;;;;;;;3.65;100.00;102391.91;4972365;28;20430;-71
2021/04/11 01:54:12;;;;;;;24.53;17.60;;;;;;;3.55;100.00;102392.00;4972524;28;20462;-75
2021/04/11 01:56:45;;;;;;;23.43;16.23;;;;;;;3.48;100.00;102392.94;4975773;28;20925;-72
2021/04/11 01:59:18;;;;;;;20.23;13.53;;;;;;;3.55;100.00;102389.41;4976295;28;20486;-75
2021/04/11 02:01:47;;;;;;;20.30;14.83;;;;;;;3.50;100.00;102391.19;4976068;28;20387;-72
2021/04/11 02:04:13;;;;;;;22.27;14.90;;;;;;;3.49;100.00;102391.22;4975769;28;20903;-72
2021/04/11 02:06:47;;;;;;;20.50;10.77;;;;;;;3.51;100.00;102386.84;4975707;28;20406;-76
2021/04/11 02:09:22;;;;;;;26.03;16.07;;;;;;;3.43;100.00;102386.06;4976024;28;20196;-72
2021/04/11 02:11:48;;;;;;;23.57;16.47;;;;;;;3.27;100.00;102377.56;4975244;28;20410;-74
2021/04/11 02:14:14;;;;;;;31.00;17.80;;;;;;;3.36;100.00;102393.06;4976293;28;20422;-72
2021/04/11 02:16:40;;;;;;;25.03;15.20;;;;;;;3.41;100.00;102386.09;4975279;28;20969;-70
2021/04/11 02:19:17;;;;;;;28.27;17.60;;;;;;;3.41;100.00;102382.63;4975645;28;20410;-76
2021/04/11 02:21:47;;;;;;;28.80;15.40;;;;;;;3.45;100.00;102379.97;4975744;28;20430;-72
2021/04/11 02:24:14;;;;;;;29.87;18.10;;;;;;;3.40;100.00;102389.56;4975206;28;20477;-73
2021/04/11 02:26:40;;;;;;;27.60;17.57;;;;;;;3.40;100.00;102386.97;4975311;28;20435;-75
2021/04/11 02:29:09;;;;;;;30.97;17.47;;;;;;;3.44;100.00;102378.25;4975306;28;20833;-73
2021/04/11 02:31:34;;;;;;;22.90;15.80;;;;;;;3.50;100.00;102380.78;4990017;28;20418;-72
2021/04/11 02:34:06;;;;;;;25.87;16.23;;;;;;;3.43;100.00;102384.34;4994900;28;20395;-71
2021/04/11 02:36:47;;;;;;;22.60;15.37;;;;;;;3.50;100.00;102382.53;4993830;28;20178;-69
2021/04/11 02:39:18;;;;;;;26.97;14.00;;;;;;;3.56;100.00;102387.66;4993474;28;20440;-70
2021/04/11 02:41:44;;;;;;;18.93;12.43;;;;;;;3.55;100.00;102386.81;4994976;28;20405;-73
2021/04/11 02:44:10;;;;;;;20.80;14.00;;;;;;;3.43;100.00;102386.06;4994766;28;20402;-72
2021/04/11 02:46:41;;;;;;;20.53;12.20;;;;;;;3.32;100.00;102384.44;4992633;28;20464;-71
2021/04/11 02:49:11;;;;;;;20.43;14.00;;;;;;;3.26;100.00;102381.06;4994488;28;20446;-72
2021/04/11 02:51:38;;;;;;;22.13;14.87;;;;;;;3.15;100.00;102388.94;4987853;28;20415;-70
2021/04/11 02:54:06;;;;;;;14.40;9.27;;;;;;;3.16;100.00;102388.03;4982307;28;20842;-72
2021/04/11 02:56:32;;;;;;;17.60;14.07;;;;;;;3.16;100.00;102384.59;4994561;28;20405;-71
2021/04/11 02:58:58;;;;;;;21.33;15.40;;;;;;;3.10;100.00;102388.13;4993859;28;20426;-73
2021/04/11 03:01:32;;;;;;;26.30;17.60;;;;;;;3.09;100.00;102388.97;4994580;28;20417;-71
2021/04/11 03:03:58;;;;;;;22.90;16.57;;;;;;;3.04;100.00;102393.38;4994220;28;20526;-72
2021/04/11 03:06:28;;;;;;;28.03;14.27;;;;;;;3.12;100.00;102398.50;4994271;28;20415;-72
2021/04/11 03:08:58;;;;;;;20.07;13.90;;;;;;;3.17;100.00;102394.09;4993990;28;20996;-72
2021/04/11 03:11:30;;;;;;;23.73;15.47;;;;;;;3.16;100.00;102392.38;4994038;28;20430;-77
2021/04/11 03:13:57;;;;;;;21.40;14.53;;;;;;;3.21;100.00;102390.63;4978165;28;20455;-71
2021/04/11 03:16:24;;;;;;;17.90;12.20;;;;;;;3.22;100.00;102397.53;4975018;28;20435;-72
2021/04/11 03:18:53;;;;;;;20.40;10.63;;;;;;;3.24;100.00;102387.97;4974607;28;20442;-71
2021/04/11 03:21:19;;;;;;;20.43;13.40;;;;;;;3.22;100.00;102387.13;4974429;28;20402;-73
2021/04/11 03:23:45;;;;;;;20.77;14.27;;;;;;;3.20;100.00;102388.91;4974447;28;20768;-72
2021/04/11 03:26:26;;;;;;;20.80;11.97;;;;;;;3.24;100.00;102388.84;4974346;28;20191;-72
2021/04/11 03:28:58;;;;;;;15.50;10.50;;;;;;;3.24;100.00;102393.16;4974259;28;20199;-72
2021/04/11 03:31:30;;;;;;;16.10;12.80;;;;;;;3.14;100.00;102391.53;4975131;28;20435;-73
2021/04/11 03:33:59;;;;;;;19.43;13.07;;;;;;;3.18;100.00;102390.66;4974349;28;20387;-74
2021/04/11 03:36:27;;;;;;;20.83;14.20;;;;;;;3.24;100.00;102387.97;4974184;28;20511;-72
2021/04/11 03:38:53;;;;;;;21.80;10.60;;;;;;;3.28;100.00;102393.13;4974136;28;20403;-80
2021/04/11 03:41:20;;;;;;;20.17;13.30;;;;;;;3.24;100.00;102390.56;4973899;28;20919;-71
2021/04/11 03:43:51;;;;;;;19.00;11.40;;;;;;;3.22;100.00;102394.94;4974255;28;20395;-73
2021/04/11 03:46:33;;;;;;;18.03;13.13;;;;;;;3.24;100.00;102386.22;4974063;28;20415;-74
2021/04/11 03:49:14;;;;;;;21.93;12.40;;;;;;;3.11;100.00;102391.59;4973945;28;20447;-73
2021/04/11 03:51:43;;;;;;;18.77;11.47;;;;;;;3.16;100.00;102392.38;4973558;28;20418;-74
2021/04/11 03:54:19;;;;;;;26.10;13.93;;;;;;;3.25;100.00;102397.47;4973914;28;20459;-72
2021/04/11 03:56:55;;;;;;;24.70;15.00;;;;;;;3.26;100.00;102387.09;4973891;28;20384;-71
2021/04/11 03:59:27;;;;;;;21.73;15.27;;;;;;;3.15;100.00;102390.66;4993432;28;20402;-72
2021/04/11 04:01:57;;;;;;;13.27;10.23;;;;;;;3.23;100.00;102391.44;4993241;28;20399;-71
2021/04/11 04:04:24;;;;;;;22.97;13.60;;;;;;;3.21;100.00;102388.00;4993244;28;20887;-71
2021/04/11 04:07:04;;;;;;;31.83;14.77;;;;;;;3.15;100.00;102394.13;4993381;28;20406;-73
2021/04/11 04:09:29;;;;;;;24.97;14.77;;;;;;;3.12;100.00;102401.94;4985685;28;20447;-72
2021/04/11 04:12:07;;;;;;;28.53;17.27;;;;;;;3.08;100.00;102407.16;4973444;28;20407;-72
2021/04/11 04:15:03;;;;;;;26.40;19.70;;;;;;;3.10;100.00;102408.91;4973758;28;20164;-73
2021/04/11 04:18:06;;;;;;;29.77;19.20;;;;;;;3.16;100.00;102407.97;4973079;28;20416;-72
2021/04/11 04:20:43;;;;;;;45.53;26.20;;;;;;;3.22;100.00;102413.09;4973414;28;20403;-72
2021/04/11 04:23:27;;;;;;;50.43;32.73;;;;;;;3.37;100.00;102418.16;4973554;28;20395;-72
2021/04/11 04:26:14;;;;;;;54.73;38.50;;;;;;;3.37;100.00;102422.50;4973553;28;20459;-70
2021/04/11 04:28:45;;;;;;;68.67;42.90;;;;;;;3.40;100.00;102418.16;4986293;28;20448;-72
2021/04/11 04:31:24;;;;;;;65.57;41.80;;;;;;;3.44;100.00;102419.81;4992619;28;20465;-72
2021/04/11 04:33:54;;;;;;;63.40;41.20;;;;;;;3.48;100.00;102425.88;4986708;28;20917;-72
2021/04/11 04:36:42;;;;;;;54.90;32.70;;;;;;;3.56;100.00;102424.91;4992442;28;20413;-72
2021/04/11 04:39:24;;;;;;;58.43;40.67;;;;;;;3.67;100.00;102429.13;4992324;28;20407;-74
2021/04/11 04:42:21;;;;;;;62.50;38.97;;;;;;;3.71;100.00;102436.88;4992714;28;20917;-73
2021/04/11 04:45:11;;;;;;;56.67;41.20;;;;;;;3.72;100.00;102441.19;4979752;28;20457;-69
2021/04/11 04:47:47;;;;;;;86.97;48.63;;;;;;;3.88;100.00;102440.13;4972873;28;20395;-73
2021/04/11 04:50:24;;;;;;;64.83;47.10;;;;;;;3.96;100.00;102444.38;4983054;28;20441;-70
2021/04/11 04:53:17;;;;;;;76.70;47.00;;;;;;;4.04;100.00;102438.22;4991980;28;20888;-73
2021/04/11 04:55:48;;;;;;;73.27;44.60;;;;;;;4.10;100.00;102438.13;4992002;28;20454;-72
2021/04/11 04:58:18;;;;;;;68.37;42.30;;;;;;;4.23;100.00;102441.44;4981184;28;20414;-72
2021/04/11 05:01:00;;;;;;;69.07;37.37;;;;;;;4.33;100.00;102453.47;4973069;28;20396;-72
2021/04/11 05:03:42;;;;;;;53.03;31.60;;;;;;;4.44;100.00;102453.31;4972785;28;20786;-72
2021/04/11 05:06:31;;;;;;;57.53;38.17;;;;;;;4.50;100.00;102452.38;4972612;28;20392;-73
2021/04/11 05:09:03;;;;;;;50.67;32.77;;;;;;;4.56;100.00;102447.09;4971938;28;20898;-71
2021/04/11 05:11:46;;;;;;;41.57;28.40;;;;;;;4.69;100.00;102448.63;4972806;28;20413;-73
2021/04/11 05:14:24;;;;;;;40.80;29.87;;;;;;;4.78;100.00;102440.69;4972764;28;20395;-73
2021/04/11 05:16:59;;;;;;;57.80;33.70;;;;;;;4.84;100.00;102445.78;4972743;28;20514;-72
2021/04/11 05:19:32;;;;;;;41.27;22.53;;;;;;;4.92;100.00;102449.13;4972630;28;20407;-73
2021/04/11 05:22:13;;;;;;;49.73;33.77;;;;;;;5.02;100.00;102444.63;4972733;28;20473;-71
2021/04/11 05:24:44;;;;;;;53.57;36.20;;;;;;;5.14;100.00;102444.44;4972388;28;20429;-71
2021/04/11 05:27:24;;;;;;;56.47;34.60;;;;;;;5.31;100.00;102446.75;4972816;28;20403;-72
2021/04/11 05:29:58;;;;;;;58.63;37.67;;;;;;;5.43;100.00;102443.06;4973125;28;20470;-71
2021/04/11 05:32:23;;;;;;;66.73;45.70;;;;;;;5.56;100.00;102445.44;4987422;28;20410;-75
2021/04/11 05:34:50;;;;;;;61.20;43.73;;;;;;;5.61;100.00;102441.88;4983793;28;20426;-72
2021/04/11 05:38:09;;;;;;;57.57;37.97;;;;;;;5.72;100.00;102445.13;4995920;28;20167;-70
2021/04/11 05:40:48;;;;;;;75.60;46.60;;;;;;;5.87;100.00;102444.00;4954682;29;20435;-73
2021/04/11 05:43:24;;;;;;;55.43;39.00;;;;;;;6.04;100.00;102434.97;4971279;28;20427;-72
2021/04/11 05:46:01;;;;;;;52.23;34.87;;;;;;;6.18;100.00;102439.03;4976493;28;20402;-72
2021/04/11 05:48:45;;;;;;;51.53;35.90;;;;;;;6.39;100.00;102430.75;4976176;28;20407;-79
2021/04/11 05:51:13;;;;;;;43.63;31.47;;;;;;;6.54;100.00;102429.56;4976391;28;20418;-72
2021/04/11 05:53:47;;;;;;;45.83;31.87;;;;;;;6.68;100.00;102419.66;4975999;28;20410;-71
2021/04/11 05:56:26;;;;;;;48.80;32.70;;;;;;;6.80;100.00;102426.31;4976198;28;20574;-71
2021/04/11 05:59:00;;;;;;;57.90;39.33;;;;;;;6.93;100.00;102428.63;4975993;28;20411;-71
2021/04/11 06:01:38;;;;;;;50.30;36.17;;;;;;;7.09;100.00;102431.69;4976092;28;20414;-71
2021/04/11 06:04:10;;;;;;;63.77;40.37;;;;;;;7.17;100.00;102436.75;4975310;28;20421;-74
2021/04/11 06:06:46;;;;;;;60.13;36.50;;;;;;;7.29;100.00;102428.59;4976350;28;20416;-70
2021/04/11 06:09:33;;;;;;;51.70;34.90;;;;;;;7.43;100.00;102430.84;4990733;28;20488;-75
2021/04/11 06:12:10;;;;;;;43.10;29.60;;;;;;;7.55;100.00;102421.81;4990452;28;20494;-69
2021/04/11 06:14:45;;;;;;;45.07;27.73;;;;;;;7.64;100.00;102434.66;4975831;28;20565;-79
2021/04/11 06:17:12;;;;;;;38.30;27.07;;;;;;;7.71;100.00;102418.75;4975687;28;20432;-71
2021/04/11 06:19:43;;;;;;;33.87;26.17;;;;;;;7.87;100.00;102434.88;4975531;28;20389;-69
2021/04/11 06:22:16;;;;;;;36.13;27.40;;;;;;;8.00;100.00;102435.38;4975430;28;20423;-70
2021/04/11 06:24:57;;;;;;;30.63;25.00;;;;;;;8.11;100.00;102443.78;4984683;28;20854;-72
2021/04/11 06:27:40;;;;;;;38.90;23.77;;;;;;;8.26;100.00;102448.59;4995829;28;20917;-70
2021/04/11 06:30:11;;;;;;;30.60;25.33;;;;;;;8.40;100.00;102452.59;5000927;28;20517;-69
2021/04/11 06:32:55;;;;;;;32.00;22.37;;;;;;;8.51;100.00;102453.97;4996252;28;20474;-72
2021/04/11 06:35:28;;;;;;;33.57;24.17;;;;;;;8.55;100.00;102467.84;4989654;28;20410;-73
2021/04/11 06:37:57;;;;;;;34.97;24.67;;;;;;;8.58;100.00;102481.69;4994443;28;20411;-72
2021/04/11 06:40:41;;;;;;;29.57;21.07;;;;;;;8.67;100.00;102483.16;4993785;28;20407;-72
2021/04/11 06:43:44;;;;;;;35.77;18.60;;;;;;;8.76;100.00;102492.50;4993554;28;20425;-72
2021/04/11 06:46:35;;;;;;;25.63;19.13;;;;;;;8.72;100.00;102497.00;4974749;28;20414;-73
2021/04/11 06:49:34;;;;;;;19.60;15.90;;;;;;;8.73;100.00;102490.00;4969829;28;20473;-72
2021/04/11 06:52:28;;;;;;;27.97;18.37;;;;;;;8.81;100.00;102483.59;4974877;28;21021;-73
2021/04/11 06:55:12;;;;;;;20.33;15.77;;;;;;;8.85;100.00;102487.00;4974773;28;21008;-72
2021/04/11 06:57:56;;;;;;;20.50;16.10;;;;;;;8.87;100.00;102488.66;4974859;28;20435;-71
2021/04/11 07:00:28;;;;;;;21.90;15.27;;;;;;;8.99;100.00;102497.88;4974512;28;20855;-76
2021/04/11 07:03:21;;;;;;;17.03;12.87;;;;;;;9.09;100.00;102493.22;4974663;28;20422;-73
2021/04/11 07:06:07;;;;;;;12.63;8.43;;;;;;;9.11;100.00;102481.78;4974566;28;20775;-72
2021/04/11 07:09:04;;;;;;;20.67;7.53;;;;;;;9.23;100.00;102479.69;4974443;28;20937;-74
2021/04/11 07:11:39;;;;;;;7.43;4.40;;;;;;;9.35;100.00;102479.25;4974432;28;20835;-72
2021/04/11 07:14:23;;;;;;;7.00;4.10;;;;;;;9.38;100.00;102482.63;4974724;28;20395;-71
2021/04/11 07:16:58;;;;;;;6.70;5.30;;;;;;;9.53;100.00;102481.25;4974702;28;20810;-71
2021/04/11 07:19:51;;;;;;;7.30;4.37;;;;;;;9.72;100.00;102486.72;4956644;28;20801;-72
2021/04/11 07:22:23;;;;;;;6.10;4.63;;;;;;;9.85;100.00;102492.41;4955078;29;20500;-71
2021/04/11 07:25:00;;;;;;;8.53;5.17;;;;;;;9.89;100.00;102491.38;4955008;29;20427;-72
2021/04/11 07:27:44;;;;;;;9.10;5.07;;;;;;;10.01;100.00;102494.41;4955100;29;20403;-75
2021/04/11 07:30:16;;;;;;;6.97;5.17;;;;;;;10.05;100.00;102494.28;4954942;29;20655;-72
2021/04/11 07:33:22;;;;;;;7.50;5.20;;;;;;;10.06;100.00;102489.00;4955001;29;20784;-72
2021/04/11 07:35:54;;;;;;;8.73;5.10;;;;;;;10.19;100.00;102490.25;4955005;29;20396;-69
2021/04/11 07:38:38;;;;;;;7.67;5.77;;;;;;;10.15;100.00;102496.56;4955014;29;20400;-69
2021/04/11 07:41:06;;;;;;;6.90;5.10;;;;;;;10.25;100.00;102490.06;4954357;29;20405;-69
2021/04/11 07:43:52;;;;;;;9.37;5.70;;;;;;;10.34;100.00;102490.63;4954378;28;20419;-70
2021/04/11 07:46:32;;;;;;;8.90;5.70;;;;;;;10.44;100.00;102500.75;4960001;28;20419;-71
2021/04/11 07:49:17;;;;;;;10.00;5.70;;;;;;;10.39;100.00;102505.31;4962853;28;20526;-71
2021/04/11 07:52:07;;;;;;;10.57;6.00;;;;;;;10.48;100.00;102504.97;4973255;28;20408;-70
2021/04/11 07:54:42;;;;;;;8.20;6.10;;;;;;;10.56;100.00;102504.69;4969308;28;20463;-71
2021/04/11 07:57:23;;;;;;;9.30;6.33;;;;;;;10.68;100.00;102506.84;4990630;28;20410;-70
2021/04/11 08:00:18;;;;;;;10.47;6.30;;;;;;;10.73;100.00;102514.53;4986831;28;20407;-69
2021/04/11 08:03:21;;;;;;;10.80;6.43;;;;;;;10.75;100.00;102513.59;4973866;28;20407;-72
2021/04/11 08:06:11;;;;;;;10.53;6.80;;;;;;;10.79;100.00;102517.78;5012563;28;20397;-69
2021/04/11 08:09:03;;;;;;;8.33;6.37;;;;;;;10.87;100.00;102522.75;5012253;28;20448;-69
2021/04/11 08:11:38;;;;;;;13.70;6.60;;;;;;;10.96;100.00;102516.28;5012304;28;20810;-70
2021/04/11 08:14:21;;;;;;;10.10;6.93;;;;;;;11.02;100.00;102510.75;5012302;28;20385;-71
2021/04/11 08:17:00;;;;;;;11.40;6.10;;;;;;;10.98;100.00;102515.31;5012149;28;20416;-69
2021/04/11 08:19:44;;;;;;;9.53;6.53;;;;;;;10.93;100.00;102524.28;5012305;28;20909;-68
2021/04/11 08:22:12;;;;;;;8.90;7.23;;;;;;;10.99;100.00;102516.16;5011794;28;20466;-69
2021/04/11 08:24:37;;;;;;;9.10;6.80;;;;;;;11.16;100.00;102521.59;5011398;28;20425;-70
2021/04/11 08:27:31;;;;;;;8.10;6.50;;;;;;;11.20;100.00;102527.59;5009988;28;20466;-69
2021/04/11 08:30:10;;;;;;;7.60;6.60;;;;;;;11.05;100.00;102526.44;5010943;28;20289;-70
2021/04/11 08:32:47;;;;;;;11.20;7.10;;;;;;;11.19;100.00;102518.00;5011570;28;20401;-70
2021/04/11 08:35:50;;;;;;;9.10;6.23;;;;;;;11.27;100.00;102515.91;5011820;28;20475;-70
2021/04/11 08:38:43;;;;;;;8.40;7.00;;;;;;;11.38;100.00;102519.78;5010652;28;20500;-68
2021/04/11 08:41:45;;;;;;;11.20;6.33;;;;;;;11.48;100.00;102511.50;5011340;28;20454;-70
2021/04/11 08:44:32;;;;;;;8.20;6.23;;;;;;;11.58;100.00;102510.22;5011720;28;20435;-69
2021/04/11 08:47:06;;;;;;;8.83;6.77;;;;;;;11.54;100.00;102509.47;4997936;28;20415;-70
2021/04/11 08:50:04;;;;;;;7.97;6.80;;;;;;;11.48;100.00;102516.78;4983090;28;20471;-74
2021/04/11 08:52:42;;;;;;;8.83;6.80;;;;;;;11.59;100.00;102509.28;4970720;28;20441;-70
2021/04/11 08:55:32;;;;;;;8.87;6.23;;;;;;;11.69;100.00;102513.25;4974139;28;20962;-71
2021/04/11 08:58:00;;;;;;;9.60;6.73;;;;;;;11.77;100.00;102513.75;4992115;28;20883;-70
2021/04/11 09:00:29;;;;;;;8.03;6.30;;;;;;;11.55;100.00;102505.91;4991947;28;20398;-70
2021/04/11 09:03:13;;;;;;;10.90;6.47;;;;;;;11.56;100.00;102507.66;4991828;28;20415;-69
2021/04/11 09:06:03;;;;;;;10.43;7.20;;;;;;;11.65;100.00;102511.69;4990409;28;20398;-70
2021/04/11 09:08:33;;;;;;;10.10;6.10;;;;;;;11.59;100.00;102518.06;4980509;28;20498;-69
2021/04/11 09:11:21;;;;;;;9.77;6.47;;;;;;;11.55;100.00;102505.91;4975499;28;20910;-71
2021/04/11 09:13:55;;;;;;;10.90;6.57;;;;;;;11.71;100.00;102503.50;4991315;28;20774;-72
2021/04/11 09:16:39;;;;;;;11.60;7.00;;;;;;;11.81;100.00;102499.59;4991894;28;20879;-70
2021/04/11 09:19:15;;;;;;;8.47;6.90;;;;;;;11.85;100.00;102500.28;4986375;28;20957;-69
2021/04/11 09:22:05;;;;;;;9.57;7.00;;;;;;;11.99;100.00;102499.69;4991845;28;20395;-69
2021/04/11 09:24:39;;;;;;;7.80;6.53;;;;;;;12.07;100.00;102500.22;4991183;28;20804;-68
2021/04/11 09:27:16;;;;;;;10.47;7.07;;;;;;;12.10;100.00;102500.09;4991231;28;20399;-75
2021/04/11 09:30:03;;;;;;;8.03;6.10;;;;;;;12.18;100.00;102496.19;4990382;28;20441;-68
2021/04/11 09:32:47;;;;;;;9.00;6.13;;;;;;;12.25;100.00;102490.63;4990455;28;20788;-68
2021/04/11 09:35:54;;;;;;;9.33;6.33;;;;;;;12.18;100.00;102487.41;4979763;28;20399;-68
2021/04/11 09:38:41;;;;;;;8.63;6.67;;;;;;;12.30;100.00;102488.63;4958294;28;20462;-70
2021/04/11 09:41:09;;;;;;;10.37;5.63;;;;;;;12.87;100.00;102485.03;4971465;28;20403;-68
2021/04/11 09:43:53;;;;;;;8.57;6.30;;;;;;;13.55;100.00;102472.88;4971670;28;20455;-67
2021/04/11 09:47:03;;;;;;;9.90;6.27;;;;;;;13.97;100.00;102470.69;4977517;28;20549;-68
2021/04/11 09:49:39;;;;;;;9.27;6.23;;;;;;;14.64;100.00;102464.41;4968239;28;20465;-72
2021/04/11 09:52:20;;;;;;;11.30;5.80;;;;;;;15.54;100.00;102465.31;4981111;28;20437;-69
2021/04/11 09:55:17;;;;;;;8.83;5.83;;;;;;;16.84;100.00;102457.19;4971507;28;20570;-69
2021/04/11 09:58:20;;;;;;;8.70;5.53;;;;;;;16.73;100.00;102451.75;4967541;28;20439;-70
2021/04/11 10:01:16;;;;;;;7.23;5.80;;;;;;;16.88;100.00;102456.03;4951298;28;20450;-69
2021/04/11 10:04:00;;;;;;;12.53;6.57;;;;;;;16.96;100.00;102455.53;4971885;28;20780;-67
2021/04/11 10:06:53;;;;;;;7.77;5.43;;;;;;;17.22;100.00;102450.28;4971463;28;20400;-71
2021/04/11 10:09:40;;;;;;;10.67;5.13;;;;;;;18.13;100.00;102448.41;4983437;28;20456;-69
2021/04/11 10:12:23;;;;;;;5.30;4.50;;;;;;;18.70;100.00;102442.53;4990559;28;20417;-68
2021/04/11 10:14:58;;;;;;;6.77;5.00;;;;;;;19.05;100.00;102431.91;4990755;28;20901;-72
2021/04/11 10:18:07;;;;;;;6.80;5.30;;;;;;;18.17;100.00;102436.59;4994139;28;20420;-76
2021/04/11 10:20:42;;;;;;;5.93;5.13;;;;;;;18.84;100.00;102445.03;4994275;28;20490;-68
2021/04/11 10:23:28;;;;;;;5.73;4.50;;;;;;;19.88;95.27;102442.41;4993891;28;20433;-69
2021/04/11 10:26:05;;;;;;;5.27;4.00;;;;;;;19.87;90.57;102443.34;4985248;28;20450;-68
2021/04/11 10:28:40;;;;;;;7.90;5.63;;;;;;;19.59;93.14;102431.34;4974671;28;20395;-68
2021/04/11 10:31:20;;;;;;;5.20;4.07;;;;;;;19.11;93.15;102437.59;4975149;28;20495;-70
2021/04/11 10:33:53;;;;;;;6.30;4.80;;;;;;;20.89;80.85;102427.03;4974915;28;20403;-68
2021/04/11 10:36:41;;;;;;;5.53;4.57;;;;;;;22.29;72.63;102430.13;4975240;28;20403;-75
2021/04/11 10:39:44;;;;;;;7.63;3.73;;;;;;;23.82;65.05;102423.13;4990579;28;20426;-70
2021/04/11 10:42:26;;;;;;;7.20;4.27;;;;;;;23.51;59.38;102429.53;4980892;28;20812;-67
2021/04/11 10:45:10;;;;;;;7.00;4.30;;;;;;;24.92;54.98;102416.59;4991442;28;20457;-71
2021/04/11 10:47:41;;;;;;;6.83;4.20;;;;;;;24.42;50.63;102426.22;5005920;28;20504;-67
2021/04/11 10:50:22;;;;;;;4.70;2.90;;;;;;;25.14;47.87;102414.44;4996387;28;20537;-74
2021/04/11 10:53:05;;;;;;;4.90;3.30;;;;;;;23.41;49.23;102420.66;4993690;28;20409;-72
2021/04/11 10:56:02;;;;;;;4.70;3.27;;;;;;;24.26;49.39;102424.16;4990314;28;20840;-75
2021/04/11 10:58:33;;;;;;;5.33;3.30;;;;;;;24.89;48.34;102410.69;4996062;28;20406;-70
2021/04/11 11:01:13;;;;;;;4.40;3.23;;;;;;;25.18;46.21;102405.91;4976386;28;20427;-73
2021/04/11 11:03:48;;;;;;;6.43;3.50;;;;;;;24.74;47.23;102415.78;4983706;28;20433;-67
2021/04/11 11:06:33;;;;;;;4.60;3.30;;;;;;;25.11;45.99;102410.22;4995835;28;20547;-79
2021/04/11 11:09:30;;;;;;;5.53;3.23;;;;;;;24.69;46.89;102409.16;4993275;28;21096;-78
2021/04/11 11:12:03;;;;;;;4.33;3.10;;;;;;;24.59;47.38;102404.72;4980523;28;20423;-75
2021/04/11 11:14:50;;;;;;;4.77;3.50;;;;;;;25.58;45.88;102399.09;4985825;28;20402;-73
2021/04/11 11:17:54;;;;;;;4.30;3.47;;;;;;;25.10;46.11;102392.41;4979714;28;20442;-72
2021/04/11 11:20:25;;;;;;;5.23;3.40;;;;;;;24.38;46.22;102393.41;4986176;28;20425;-69
2021/04/11 11:23:09;;;;;;;6.30;3.40;;;;;;;24.18;47.47;102398.06;4993373;28;20428;-70
2021/04/11 11:25:51;;;;;;;4.60;3.20;;;;;;;23.86;49.42;102398.50;4993053;28;21014;-74
2021/04/11 11:28:44;;;;;;;4.93;3.23;;;;;;;24.54;50.55;102393.56;4990178;28;20501;-71
2021/04/11 11:31:20;;;;;;;4.40;3.33;;;;;;;25.13;48.02;102386.69;4993453;28;20410;-71
2021/04/11 11:34:24;;;;;;;5.87;3.67;;;;;;;25.15;47.20;102376.59;4985592;28;20823;-71
2021/04/11 11:37:01;;;;;;;5.17;3.30;;;;;;;24.81;47.50;102387.25;4959643;28;20468;-69
2021/04/11 11:39:44;;;;;;;5.33;3.73;;;;;;;24.71;49.29;102381.13;4984907;28;20422;-72
2021/04/11 11:42:15;;;;;;;5.30;3.80;;;;;;;22.28;54.32;102385.53;4984352;28;20480;-76
2021/04/11 11:45:20;;;;;;;7.20;3.67;;;;;;;22.51;55.27;102383.44;4991854;28;20410;-76
2021/04/11 11:47:57;;;;;;;13.63;6.40;;;;;;;23.94;54.19;102374.41;4972544;28;20454;-79
2021/04/11 11:50:28;;;;;;;4.40;3.53;;;;;;;23.89;52.86;102374.03;4982077;28;20537;-79
2021/04/11 11:53:03;;;;;;;7.47;4.00;;;;;;;22.55;56.09;102373.31;4989693;28;20414;-79
2021/04/11 11:55:33;;;;;;;6.13;4.00;;;;;;;20.57;60.88;102378.13;4983583;28;20924;-79
2021/04/11 11:58:27;;;;;;;4.40;3.80;;;;;;;20.06;63.09;102374.22;4980338;28;20406;-77
2021/04/11 12:01:27;;;;;;;6.70;3.60;;;;;;;19.85;62.63;102371.44;4989848;28;20426;-78